sensor_id;sensor_type;location;lat;lon;timestamp;P1;durP1;ratioP1;P2;durP2;ratioP2
64199;SDS011;50516;52.272;5.136;2023-05-08T00:01:47;8.88;;;6.80;;
64199;SDS011;50516;52.272;5.136;2023-05-08T00:04:12;9.73;;;6.70;;
64199;SDS011;50516;52.272;5.136;2023-05-08T00:06:38;8.50;;;6.20;;
64199;SDS011;50516;52.272;5.136;2023-05-08T00:09:03;6.97;;;6.28;;
64199;SDS011;50516;52.272;5.136;2023-05-08T00:11:28;8.10;;;6.53;;
64199;SDS011;50516;52.272;5.136;2023-05-08T00:13:53;7.15;;;6.15;;
64199;SDS011;50516;52.272;5.136;2023-05-08T00:16:19;11.48;;;7.18;;
64199;SDS011;50516;52.272;5.136;2023-05-08T00:18:44;8.48;;;7.03;;
64199;SDS011;50516;52.272;5.136;2023-05-08T00:21:10;10.95;;;6.72;;
64199;SDS011;50516;52.272;5.136;2023-05-08T00:23:36;8.45;;;6.60;;
64199;SDS011;50516;52.272;5.136;2023-05-08T00:26:01;7.28;;;6.47;;
64199;SDS011;50516;52.272;5.136;2023-05-08T00:28:26;10.63;;;7.22;;
64199;SDS011;50516;52.272;5.136;2023-05-08T00:30:51;9.32;;;8.32;;
64199;SDS011;50516;52.272;5.136;2023-05-08T00:33:17;10.13;;;7.70;;
64199;SDS011;50516;52.272;5.136;2023-05-08T00:35:43;9.05;;;7.80;;
64199;SDS011;50516;52.272;5.136;2023-05-08T00:38:08;8.75;;;7.22;;
64199;SDS011;50516;52.272;5.136;2023-05-08T00:40:34;8.32;;;7.45;;
64199;SDS011;50516;52.272;5.136;2023-05-08T00:42:59;10.15;;;8.15;;
64199;SDS011;50516;52.272;5.136;2023-05-08T00:45:26;7.95;;;6.85;;
64199;SDS011;50516;52.272;5.136;2023-05-08T00:47:58;10.02;;;7.63;;
64199;SDS011;50516;52.272;5.136;2023-05-08T00:50:23;9.02;;;7.00;;
64199;SDS011;50516;52.272;5.136;2023-05-08T00:52:49;9.85;;;8.80;;
64199;SDS011;50516;52.272;5.136;2023-05-08T00:55:15;13.45;;;8.60;;
64199;SDS011;50516;52.272;5.136;2023-05-08T00:57:41;10.77;;;7.85;;
64199;SDS011;50516;52.272;5.136;2023-05-08T01:00:06;8.63;;;7.72;;
64199;SDS011;50516;52.272;5.136;2023-05-08T01:02:33;8.55;;;7.55;;
64199;SDS011;50516;52.272;5.136;2023-05-08T01:04:59;9.90;;;8.63;;
64199;SDS011;50516;52.272;5.136;2023-05-08T01:07:25;8.88;;;7.78;;
64199;SDS011;50516;52.272;5.136;2023-05-08T01:09:51;10.50;;;7.85;;
64199;SDS011;50516;52.272;5.136;2023-05-08T01:12:25;12.30;;;8.35;;
64199;SDS011;50516;52.272;5.136;2023-05-08T01:15:07;11.00;;;8.30;;
64199;SDS011;50516;52.272;5.136;2023-05-08T01:17:59;9.35;;;7.53;;
64199;SDS011;50516;52.272;5.136;2023-05-08T01:20:50;12.77;;;8.70;;
64199;SDS011;50516;52.272;5.136;2023-05-08T01:32:29;16.45;;;8.85;;
64199;SDS011;50516;52.272;5.136;2023-05-08T01:43:23;11.88;;;8.75;;
64199;SDS011;50516;52.272;5.136;2023-05-08T01:45:53;12.90;;;8.57;;
64199;SDS011;50516;52.272;5.136;2023-05-08T01:48:23;10.35;;;8.55;;
64199;SDS011;50516;52.272;5.136;2023-05-08T01:51:11;8.55;;;7.72;;
64199;SDS011;50516;52.272;5.136;2023-05-08T01:53:41;10.15;;;8.68;;
64199;SDS011;50516;52.272;5.136;2023-05-08T01:56:12;11.73;;;9.82;;
64199;SDS011;50516;52.272;5.136;2023-05-08T01:58:42;12.50;;;10.38;;
64199;SDS011;50516;52.272;5.136;2023-05-08T02:01:09;9.32;;;8.18;;
64199;SDS011;50516;52.272;5.136;2023-05-08T02:03:38;10.18;;;7.53;;
64199;SDS011;50516;52.272;5.136;2023-05-08T02:06:05;8.68;;;7.70;;
64199;SDS011;50516;52.272;5.136;2023-05-08T02:08:33;12.63;;;8.10;;
64199;SDS011;50516;52.272;5.136;2023-05-08T02:11:00;11.48;;;8.18;;
64199;SDS011;50516;52.272;5.136;2023-05-08T02:13:27;10.20;;;8.10;;
64199;SDS011;50516;52.272;5.136;2023-05-08T02:15:54;10.80;;;7.93;;
64199;SDS011;50516;52.272;5.136;2023-05-08T02:18:22;9.70;;;8.13;;
64199;SDS011;50516;52.272;5.136;2023-05-08T02:20:50;9.63;;;8.18;;
64199;SDS011;50516;52.272;5.136;2023-05-08T02:23:17;15.18;;;9.30;;
64199;SDS011;50516;52.272;5.136;2023-05-08T02:25:44;8.48;;;7.60;;
64199;SDS011;50516;52.272;5.136;2023-05-08T02:28:11;9.70;;;8.70;;
64199;SDS011;50516;52.272;5.136;2023-05-08T02:30:36;12.43;;;8.90;;
64199;SDS011;50516;52.272;5.136;2023-05-08T02:33:04;8.45;;;7.65;;
64199;SDS011;50516;52.272;5.136;2023-05-08T02:35:32;9.57;;;8.15;;
64199;SDS011;50516;52.272;5.136;2023-05-08T02:37:59;10.38;;;8.30;;
64199;SDS011;50516;52.272;5.136;2023-05-08T02:40:26;10.77;;;9.30;;
64199;SDS011;50516;52.272;5.136;2023-05-08T02:42:53;10.07;;;9.07;;
64199;SDS011;50516;52.272;5.136;2023-05-08T02:45:19;10.32;;;8.05;;
64199;SDS011;50516;52.272;5.136;2023-05-08T02:48:00;13.05;;;8.13;;
64199;SDS011;50516;52.272;5.136;2023-05-08T02:53:52;9.23;;;7.85;;
64199;SDS011;50516;52.272;5.136;2023-05-08T02:58:59;9.25;;;7.82;;
64199;SDS011;50516;52.272;5.136;2023-05-08T03:01:41;10.57;;;7.95;;
64199;SDS011;50516;52.272;5.136;2023-05-08T03:04:11;10.80;;;7.40;;
64199;SDS011;50516;52.272;5.136;2023-05-08T03:06:43;11.00;;;7.57;;
64199;SDS011;50516;52.272;5.136;2023-05-08T03:09:14;9.35;;;8.32;;
64199;SDS011;50516;52.272;5.136;2023-05-08T03:11:42;8.32;;;7.43;;
64199;SDS011;50516;52.272;5.136;2023-05-08T03:14:11;9.23;;;7.47;;
64199;SDS011;50516;52.272;5.136;2023-05-08T03:16:40;9.35;;;7.85;;
64199;SDS011;50516;52.272;5.136;2023-05-08T03:19:14;9.65;;;8.32;;
64199;SDS011;50516;52.272;5.136;2023-05-08T03:21:44;9.20;;;8.30;;
64199;SDS011;50516;52.272;5.136;2023-05-08T03:24:11;12.63;;;8.18;;
64199;SDS011;50516;52.272;5.136;2023-05-08T03:26:41;11.95;;;7.93;;
64199;SDS011;50516;52.272;5.136;2023-05-08T03:29:07;28.65;;;8.80;;
64199;SDS011;50516;52.272;5.136;2023-05-08T03:31:34;21.38;;;9.00;;
64199;SDS011;50516;52.272;5.136;2023-05-08T03:34:00;13.38;;;9.50;;
64199;SDS011;50516;52.272;5.136;2023-05-08T03:36:27;14.63;;;8.68;;
64199;SDS011;50516;52.272;5.136;2023-05-08T03:38:54;16.83;;;9.52;;
64199;SDS011;50516;52.272;5.136;2023-05-08T03:41:20;36.20;;;11.60;;
64199;SDS011;50516;52.272;5.136;2023-05-08T03:43:45;22.35;;;10.75;;
64199;SDS011;50516;52.272;5.136;2023-05-08T03:46:12;26.42;;;10.48;;
64199;SDS011;50516;52.272;5.136;2023-05-08T03:48:38;51.17;;;13.07;;
64199;SDS011;50516;52.272;5.136;2023-05-08T03:51:05;32.95;;;11.68;;
64199;SDS011;50516;52.272;5.136;2023-05-08T03:53:30;43.15;;;11.25;;
64199;SDS011;50516;52.272;5.136;2023-05-08T03:55:57;47.42;;;12.23;;
64199;SDS011;50516;52.272;5.136;2023-05-08T03:58:25;59.80;;;14.05;;
64199;SDS011;50516;52.272;5.136;2023-05-08T04:01:06;37.83;;;12.45;;
64199;SDS011;50516;52.272;5.136;2023-05-08T04:06:39;54.08;;;13.90;;
64199;SDS011;50516;52.272;5.136;2023-05-08T04:09:16;40.63;;;13.75;;
64199;SDS011;50516;52.272;5.136;2023-05-08T04:14:54;67.15;;;13.55;;
64199;SDS011;50516;52.272;5.136;2023-05-08T04:17:42;77.35;;;13.38;;
64199;SDS011;50516;52.272;5.136;2023-05-08T04:20:15;60.75;;;13.27;;
64199;SDS011;50516;52.272;5.136;2023-05-08T04:22:44;62.80;;;13.77;;
64199;SDS011;50516;52.272;5.136;2023-05-08T04:25:10;37.95;;;12.70;;
64199;SDS011;50516;52.272;5.136;2023-05-08T04:27:38;47.85;;;12.55;;
64199;SDS011;50516;52.272;5.136;2023-05-08T04:30:05;66.07;;;12.82;;
64199;SDS011;50516;52.272;5.136;2023-05-08T04:32:32;39.45;;;12.27;;
64199;SDS011;50516;52.272;5.136;2023-05-08T04:34:59;48.20;;;13.00;;
64199;SDS011;50516;52.272;5.136;2023-05-08T04:37:25;47.20;;;11.65;;
64199;SDS011;50516;52.272;5.136;2023-05-08T04:39:52;41.75;;;12.45;;
64199;SDS011;50516;52.272;5.136;2023-05-08T04:42:17;35.35;;;10.63;;
64199;SDS011;50516;52.272;5.136;2023-05-08T04:44:43;27.42;;;10.55;;
64199;SDS011;50516;52.272;5.136;2023-05-08T04:47:08;24.35;;;10.52;;
64199;SDS011;50516;52.272;5.136;2023-05-08T04:49:34;18.80;;;10.98;;
64199;SDS011;50516;52.272;5.136;2023-05-08T04:51:59;13.95;;;9.93;;
64199;SDS011;50516;52.272;5.136;2023-05-08T04:54:25;18.30;;;10.88;;
64199;SDS011;50516;52.272;5.136;2023-05-08T04:56:51;13.20;;;10.45;;
64199;SDS011;50516;52.272;5.136;2023-05-08T04:59:16;16.30;;;10.88;;
64199;SDS011;50516;52.272;5.136;2023-05-08T05:01:41;12.00;;;9.82;;
64199;SDS011;50516;52.272;5.136;2023-05-08T05:04:07;26.45;;;10.90;;
64199;SDS011;50516;52.272;5.136;2023-05-08T05:06:32;21.65;;;11.18;;
64199;SDS011;50516;52.272;5.136;2023-05-08T05:08:58;22.73;;;11.07;;
64199;SDS011;50516;52.272;5.136;2023-05-08T05:11:23;18.92;;;11.55;;
64199;SDS011;50516;52.272;5.136;2023-05-08T05:13:48;49.47;;;13.73;;
64199;SDS011;50516;52.272;5.136;2023-05-08T05:16:14;33.75;;;12.82;;
64199;SDS011;50516;52.272;5.136;2023-05-08T05:18:39;18.35;;;11.63;;
64199;SDS011;50516;52.272;5.136;2023-05-08T05:21:04;13.70;;;11.73;;
64199;SDS011;50516;52.272;5.136;2023-05-08T05:23:30;27.52;;;12.63;;
64199;SDS011;50516;52.272;5.136;2023-05-08T05:25:55;51.53;;;15.35;;
64199;SDS011;50516;52.272;5.136;2023-05-08T05:28:20;29.45;;;13.98;;
64199;SDS011;50516;52.272;5.136;2023-05-08T05:30:46;32.55;;;13.23;;
64199;SDS011;50516;52.272;5.136;2023-05-08T05:33:12;18.60;;;13.20;;
64199;SDS011;50516;52.272;5.136;2023-05-08T05:35:38;35.25;;;13.50;;
64199;SDS011;50516;52.272;5.136;2023-05-08T05:38:03;49.65;;;13.90;;
64199;SDS011;50516;52.272;5.136;2023-05-08T05:40:29;28.55;;;14.90;;
64199;SDS011;50516;52.272;5.136;2023-05-08T05:42:54;19.00;;;14.35;;
64199;SDS011;50516;52.272;5.136;2023-05-08T05:45:19;43.95;;;15.75;;
64199;SDS011;50516;52.272;5.136;2023-05-08T05:47:46;43.50;;;15.88;;
64199;SDS011;50516;52.272;5.136;2023-05-08T05:50:17;32.97;;;15.45;;
64199;SDS011;50516;52.272;5.136;2023-05-08T05:52:43;49.97;;;17.10;;
64199;SDS011;50516;52.272;5.136;2023-05-08T05:55:09;22.92;;;16.17;;
64199;SDS011;50516;52.272;5.136;2023-05-08T05:57:34;28.05;;;15.90;;
64199;SDS011;50516;52.272;5.136;2023-05-08T06:00:00;56.35;;;18.63;;
64199;SDS011;50516;52.272;5.136;2023-05-08T06:02:26;35.15;;;16.33;;
64199;SDS011;50516;52.272;5.136;2023-05-08T06:04:51;32.30;;;16.08;;
64199;SDS011;50516;52.272;5.136;2023-05-08T06:07:16;59.67;;;17.58;;
64199;SDS011;50516;52.272;5.136;2023-05-08T06:09:42;20.33;;;15.88;;
64199;SDS011;50516;52.272;5.136;2023-05-08T06:12:07;49.22;;;18.08;;
64199;SDS011;50516;52.272;5.136;2023-05-08T06:14:32;67.05;;;17.90;;
64199;SDS011;50516;52.272;5.136;2023-05-08T06:16:58;57.17;;;18.65;;
64199;SDS011;50516;52.272;5.136;2023-05-08T06:19:24;45.47;;;17.35;;
64199;SDS011;50516;52.272;5.136;2023-05-08T06:21:50;46.10;;;18.63;;
64199;SDS011;50516;52.272;5.136;2023-05-08T06:24:15;119.25;;;21.13;;
64199;SDS011;50516;52.272;5.136;2023-05-08T06:26:40;33.67;;;18.63;;
64199;SDS011;50516;52.272;5.136;2023-05-08T06:29:06;38.42;;;17.95;;
64199;SDS011;50516;52.272;5.136;2023-05-08T06:31:31;25.35;;;18.23;;
64199;SDS011;50516;52.272;5.136;2023-05-08T06:33:56;38.40;;;20.00;;
64199;SDS011;50516;52.272;5.136;2023-05-08T06:36:22;25.05;;;19.75;;
64199;SDS011;50516;52.272;5.136;2023-05-08T06:38:47;24.40;;;18.38;;
64199;SDS011;50516;52.272;5.136;2023-05-08T06:41:12;32.13;;;18.70;;
64199;SDS011;50516;52.272;5.136;2023-05-08T06:43:37;37.25;;;20.48;;
64199;SDS011;50516;52.272;5.136;2023-05-08T06:46:03;28.08;;;21.25;;
64199;SDS011;50516;52.272;5.136;2023-05-08T06:48:28;29.23;;;22.45;;
64199;SDS011;50516;52.272;5.136;2023-05-08T06:50:53;23.70;;;20.52;;
64199;SDS011;50516;52.272;5.136;2023-05-08T06:53:19;27.67;;;22.58;;
64199;SDS011;50516;52.272;5.136;2023-05-08T06:55:45;29.30;;;22.30;;
64199;SDS011;50516;52.272;5.136;2023-05-08T06:58:10;24.80;;;20.58;;
64199;SDS011;50516;52.272;5.136;2023-05-08T07:00:36;23.85;;;20.90;;
64199;SDS011;50516;52.272;5.136;2023-05-08T07:03:01;27.60;;;21.73;;
64199;SDS011;50516;52.272;5.136;2023-05-08T07:05:26;27.77;;;20.70;;
64199;SDS011;50516;52.272;5.136;2023-05-08T07:07:52;25.08;;;21.27;;
64199;SDS011;50516;52.272;5.136;2023-05-08T07:10:18;30.83;;;23.80;;
64199;SDS011;50516;52.272;5.136;2023-05-08T07:12:46;30.25;;;23.63;;
64199;SDS011;50516;52.272;5.136;2023-05-08T07:15:12;33.28;;;23.80;;
64199;SDS011;50516;52.272;5.136;2023-05-08T07:17:37;32.08;;;24.40;;
64199;SDS011;50516;52.272;5.136;2023-05-08T07:20:03;32.95;;;27.10;;
64199;SDS011;50516;52.272;5.136;2023-05-08T07:22:29;28.27;;;23.98;;
64199;SDS011;50516;52.272;5.136;2023-05-08T07:24:54;33.13;;;24.58;;
64199;SDS011;50516;52.272;5.136;2023-05-08T07:27:19;31.08;;;25.25;;
64199;SDS011;50516;52.272;5.136;2023-05-08T07:29:45;31.98;;;24.75;;
64199;SDS011;50516;52.272;5.136;2023-05-08T07:32:10;32.13;;;26.17;;
64199;SDS011;50516;52.272;5.136;2023-05-08T07:34:36;30.40;;;24.35;;
64199;SDS011;50516;52.272;5.136;2023-05-08T07:37:01;31.50;;;25.95;;
64199;SDS011;50516;52.272;5.136;2023-05-08T07:39:27;38.33;;;29.55;;
64199;SDS011;50516;52.272;5.136;2023-05-08T07:41:53;33.28;;;26.92;;
64199;SDS011;50516;52.272;5.136;2023-05-08T07:44:18;37.67;;;28.92;;
64199;SDS011;50516;52.272;5.136;2023-05-08T07:46:43;35.97;;;29.65;;
64199;SDS011;50516;52.272;5.136;2023-05-08T07:49:09;42.10;;;31.55;;
64199;SDS011;50516;52.272;5.136;2023-05-08T07:51:34;37.15;;;29.52;;
64199;SDS011;50516;52.272;5.136;2023-05-08T07:54:00;37.63;;;28.73;;
64199;SDS011;50516;52.272;5.136;2023-05-08T07:56:25;40.97;;;30.70;;
64199;SDS011;50516;52.272;5.136;2023-05-08T07:58:51;39.75;;;30.35;;
64199;SDS011;50516;52.272;5.136;2023-05-08T08:01:16;41.85;;;32.22;;
64199;SDS011;50516;52.272;5.136;2023-05-08T08:03:43;40.20;;;31.75;;
64199;SDS011;50516;52.272;5.136;2023-05-08T08:06:09;43.90;;;31.40;;
64199;SDS011;50516;52.272;5.136;2023-05-08T08:08:34;49.33;;;34.67;;
64199;SDS011;50516;52.272;5.136;2023-05-08T08:10:59;49.90;;;34.28;;
64199;SDS011;50516;52.272;5.136;2023-05-08T08:13:25;44.47;;;33.28;;
64199;SDS011;50516;52.272;5.136;2023-05-08T08:15:50;44.90;;;32.83;;
64199;SDS011;50516;52.272;5.136;2023-05-08T08:18:16;45.15;;;33.35;;
64199;SDS011;50516;52.272;5.136;2023-05-08T08:20:41;47.10;;;34.78;;
64199;SDS011;50516;52.272;5.136;2023-05-08T08:23:06;48.38;;;35.10;;
64199;SDS011;50516;52.272;5.136;2023-05-08T08:25:32;49.92;;;35.15;;
64199;SDS011;50516;52.272;5.136;2023-05-08T08:27:57;42.20;;;32.25;;
64199;SDS011;50516;52.272;5.136;2023-05-08T08:30:22;47.83;;;33.60;;
64199;SDS011;50516;52.272;5.136;2023-05-08T08:32:48;46.70;;;33.22;;
64199;SDS011;50516;52.272;5.136;2023-05-08T08:35:13;53.42;;;36.10;;
64199;SDS011;50516;52.272;5.136;2023-05-08T08:37:38;47.67;;;36.38;;
64199;SDS011;50516;52.272;5.136;2023-05-08T08:40:04;47.85;;;33.53;;
64199;SDS011;50516;52.272;5.136;2023-05-08T08:42:30;45.25;;;34.33;;
64199;SDS011;50516;52.272;5.136;2023-05-08T08:44:55;48.88;;;34.80;;
64199;SDS011;50516;52.272;5.136;2023-05-08T08:47:21;47.80;;;35.03;;
64199;SDS011;50516;52.272;5.136;2023-05-08T08:49:48;58.28;;;37.72;;
64199;SDS011;50516;52.272;5.136;2023-05-08T08:52:25;51.40;;;35.47;;
64199;SDS011;50516;52.272;5.136;2023-05-08T08:54:56;51.03;;;35.85;;
64199;SDS011;50516;52.272;5.136;2023-05-08T08:57:25;53.05;;;37.67;;
64199;SDS011;50516;52.272;5.136;2023-05-08T08:59:52;51.17;;;36.22;;
64199;SDS011;50516;52.272;5.136;2023-05-08T09:02:19;50.58;;;34.72;;
64199;SDS011;50516;52.272;5.136;2023-05-08T09:04:48;52.55;;;37.13;;
64199;SDS011;50516;52.272;5.136;2023-05-08T09:07:14;54.20;;;38.10;;
64199;SDS011;50516;52.272;5.136;2023-05-08T09:09:41;61.85;;;41.45;;
64199;SDS011;50516;52.272;5.136;2023-05-08T09:12:08;49.72;;;36.85;;
64199;SDS011;50516;52.272;5.136;2023-05-08T09:14:34;56.70;;;40.97;;
64199;SDS011;50516;52.272;5.136;2023-05-08T09:17:00;61.67;;;45.03;;
64199;SDS011;50516;52.272;5.136;2023-05-08T09:19:25;65.80;;;44.50;;
64199;SDS011;50516;52.272;5.136;2023-05-08T09:21:52;68.22;;;46.67;;
64199;SDS011;50516;52.272;5.136;2023-05-08T09:24:18;77.28;;;53.00;;
64199;SDS011;50516;52.272;5.136;2023-05-08T09:26:43;91.60;;;58.75;;
64199;SDS011;50516;52.272;5.136;2023-05-08T09:29:18;92.68;;;56.97;;
64199;SDS011;50516;52.272;5.136;2023-05-08T09:31:49;92.18;;;58.17;;
64199;SDS011;50516;52.272;5.136;2023-05-08T09:36:52;95.97;;;60.97;;
64199;SDS011;50516;52.272;5.136;2023-05-08T09:39:24;93.93;;;61.45;;
64199;SDS011;50516;52.272;5.136;2023-05-08T09:41:55;99.03;;;63.38;;
64199;SDS011;50516;52.272;5.136;2023-05-08T09:44:28;101.60;;;63.53;;
64199;SDS011;50516;52.272;5.136;2023-05-08T09:47:08;119.03;;;71.15;;
64199;SDS011;50516;52.272;5.136;2023-05-08T09:49:38;112.28;;;69.55;;
64199;SDS011;50516;52.272;5.136;2023-05-08T09:52:04;119.55;;;68.80;;
64199;SDS011;50516;52.272;5.136;2023-05-08T09:54:30;114.97;;;69.35;;
64199;SDS011;50516;52.272;5.136;2023-05-08T09:56:55;115.43;;;69.35;;
64199;SDS011;50516;52.272;5.136;2023-05-08T09:59:21;114.78;;;67.05;;
64199;SDS011;50516;52.272;5.136;2023-05-08T10:01:48;115.10;;;69.60;;
64199;SDS011;50516;52.272;5.136;2023-05-08T10:04:14;110.45;;;68.70;;
64199;SDS011;50516;52.272;5.136;2023-05-08T10:06:39;111.53;;;69.07;;
64199;SDS011;50516;52.272;5.136;2023-05-08T10:09:08;120.03;;;71.45;;
64199;SDS011;50516;52.272;5.136;2023-05-08T10:11:38;122.40;;;70.43;;
64199;SDS011;50516;52.272;5.136;2023-05-08T10:14:05;119.70;;;70.88;;
64199;SDS011;50516;52.272;5.136;2023-05-08T10:16:30;121.45;;;68.53;;
64199;SDS011;50516;52.272;5.136;2023-05-08T10:19:03;117.93;;;70.68;;
64199;SDS011;50516;52.272;5.136;2023-05-08T10:21:36;118.05;;;67.93;;
64199;SDS011;50516;52.272;5.136;2023-05-08T10:24:04;110.00;;;66.25;;
64199;SDS011;50516;52.272;5.136;2023-05-08T10:26:36;114.97;;;67.47;;
64199;SDS011;50516;52.272;5.136;2023-05-08T10:29:07;124.25;;;68.55;;
64199;SDS011;50516;52.272;5.136;2023-05-08T10:31:41;108.57;;;64.25;;
64199;SDS011;50516;52.272;5.136;2023-05-08T10:34:09;104.15;;;65.38;;
64199;SDS011;50516;52.272;5.136;2023-05-08T10:36:40;104.43;;;62.17;;
64199;SDS011;50516;52.272;5.136;2023-05-08T10:39:06;104.03;;;61.90;;
64199;SDS011;50516;52.272;5.136;2023-05-08T10:41:32;96.78;;;60.72;;
64199;SDS011;50516;52.272;5.136;2023-05-08T10:43:59;104.28;;;62.42;;
64199;SDS011;50516;52.272;5.136;2023-05-08T10:46:29;97.35;;;60.75;;
64199;SDS011;50516;52.272;5.136;2023-05-08T10:52:00;94.90;;;59.15;;
64199;SDS011;50516;52.272;5.136;2023-05-08T10:57:17;99.88;;;61.83;;
64199;SDS011;50516;52.272;5.136;2023-05-08T10:59:46;90.97;;;57.58;;
64199;SDS011;50516;52.272;5.136;2023-05-08T11:02:11;88.47;;;55.30;;
64199;SDS011;50516;52.272;5.136;2023-05-08T11:04:37;81.80;;;54.17;;
64199;SDS011;50516;52.272;5.136;2023-05-08T11:07:03;89.30;;;56.80;;
64199;SDS011;50516;52.272;5.136;2023-05-08T11:09:29;86.13;;;54.90;;
64199;SDS011;50516;52.272;5.136;2023-05-08T11:12:23;82.70;;;54.03;;
64199;SDS011;50516;52.272;5.136;2023-05-08T11:14:52;75.43;;;49.92;;
64199;SDS011;50516;52.272;5.136;2023-05-08T11:17:30;76.55;;;53.90;;
64199;SDS011;50516;52.272;5.136;2023-05-08T11:19:56;80.55;;;52.58;;
64199;SDS011;50516;52.272;5.136;2023-05-08T11:22:28;71.50;;;50.03;;
64199;SDS011;50516;52.272;5.136;2023-05-08T11:24:58;78.22;;;51.63;;
64199;SDS011;50516;52.272;5.136;2023-05-08T11:38:26;75.53;;;53.25;;
64199;SDS011;50516;52.272;5.136;2023-05-08T11:46:12;79.82;;;55.35;;
64199;SDS011;50516;52.272;5.136;2023-05-08T11:48:39;80.18;;;56.15;;
64199;SDS011;50516;52.272;5.136;2023-05-08T11:51:04;80.80;;;56.10;;
64199;SDS011;50516;52.272;5.136;2023-05-08T11:53:30;76.50;;;55.33;;
64199;SDS011;50516;52.272;5.136;2023-05-08T11:55:57;71.78;;;52.78;;
64199;SDS011;50516;52.272;5.136;2023-05-08T11:58:23;69.45;;;51.08;;
64199;SDS011;50516;52.272;5.136;2023-05-08T12:00:49;67.18;;;50.92;;
64199;SDS011;50516;52.272;5.136;2023-05-08T12:03:15;63.90;;;48.28;;
64199;SDS011;50516;52.272;5.136;2023-05-08T12:05:42;68.68;;;50.72;;
64199;SDS011;50516;52.272;5.136;2023-05-08T12:08:08;71.50;;;50.88;;
64199;SDS011;50516;52.272;5.136;2023-05-08T12:10:53;64.70;;;48.42;;
64199;SDS011;50516;52.272;5.136;2023-05-08T12:13:24;62.58;;;47.35;;
64199;SDS011;50516;52.272;5.136;2023-05-08T12:15:55;63.15;;;46.67;;
64199;SDS011;50516;52.272;5.136;2023-05-08T12:18:22;64.90;;;45.75;;
64199;SDS011;50516;52.272;5.136;2023-05-08T12:20:52;56.88;;;42.60;;
64199;SDS011;50516;52.272;5.136;2023-05-08T12:23:22;59.72;;;44.15;;
64199;SDS011;50516;52.272;5.136;2023-05-08T12:25:50;55.03;;;40.78;;
64199;SDS011;50516;52.272;5.136;2023-05-08T12:28:17;45.95;;;36.85;;
64199;SDS011;50516;52.272;5.136;2023-05-08T12:30:42;53.20;;;39.25;;
64199;SDS011;50516;52.272;5.136;2023-05-08T12:33:08;49.20;;;37.15;;
64199;SDS011;50516;52.272;5.136;2023-05-08T12:35:35;52.20;;;37.90;;
64199;SDS011;50516;52.272;5.136;2023-05-08T12:38:02;49.97;;;37.92;;
64199;SDS011;50516;52.272;5.136;2023-05-08T12:40:47;47.00;;;34.90;;
64199;SDS011;50516;52.272;5.136;2023-05-08T12:43:13;42.38;;;32.63;;
64199;SDS011;50516;52.272;5.136;2023-05-08T12:45:39;47.15;;;35.95;;
64199;SDS011;50516;52.272;5.136;2023-05-08T12:50:36;49.58;;;35.90;;
64199;SDS011;50516;52.272;5.136;2023-05-08T12:53:03;50.53;;;34.05;;
64199;SDS011;50516;52.272;5.136;2023-05-08T12:55:30;50.90;;;35.78;;
64199;SDS011;50516;52.272;5.136;2023-05-08T12:57:58;42.42;;;31.40;;
64199;SDS011;50516;52.272;5.136;2023-05-08T13:00:44;50.00;;;32.70;;
64199;SDS011;50516;52.272;5.136;2023-05-08T13:03:11;41.95;;;28.33;;
64199;SDS011;50516;52.272;5.136;2023-05-08T13:05:45;40.00;;;27.08;;
64199;SDS011;50516;52.272;5.136;2023-05-08T13:08:10;44.65;;;27.65;;
64199;SDS011;50516;52.272;5.136;2023-05-08T13:10:48;44.67;;;31.50;;
64199;SDS011;50516;52.272;5.136;2023-05-08T13:13:19;38.08;;;26.95;;
64199;SDS011;50516;52.272;5.136;2023-05-08T13:15:46;40.17;;;29.20;;
64199;SDS011;50516;52.272;5.136;2023-05-08T13:18:13;42.35;;;27.70;;
64199;SDS011;50516;52.272;5.136;2023-05-08T13:20:39;41.05;;;30.15;;
64199;SDS011;50516;52.272;5.136;2023-05-08T13:23:05;36.88;;;25.92;;
64199;SDS011;50516;52.272;5.136;2023-05-08T13:25:31;36.35;;;25.02;;
64199;SDS011;50516;52.272;5.136;2023-05-08T13:27:57;43.40;;;31.33;;
64199;SDS011;50516;52.272;5.136;2023-05-08T13:30:23;42.33;;;29.77;;
64199;SDS011;50516;52.272;5.136;2023-05-08T13:32:49;42.22;;;27.83;;
64199;SDS011;50516;52.272;5.136;2023-05-08T13:35:15;44.00;;;30.20;;
64199;SDS011;50516;52.272;5.136;2023-05-08T13:37:41;38.92;;;27.98;;
64199;SDS011;50516;52.272;5.136;2023-05-08T13:40:07;38.55;;;27.55;;
64199;SDS011;50516;52.272;5.136;2023-05-08T13:42:32;32.10;;;21.65;;
64199;SDS011;50516;52.272;5.136;2023-05-08T13:44:58;29.92;;;22.13;;
64199;SDS011;50516;52.272;5.136;2023-05-08T13:47:23;31.27;;;20.88;;
64199;SDS011;50516;52.272;5.136;2023-05-08T13:49:49;28.25;;;19.60;;
64199;SDS011;50516;52.272;5.136;2023-05-08T13:52:14;28.55;;;20.35;;
64199;SDS011;50516;52.272;5.136;2023-05-08T13:54:40;30.52;;;18.92;;
64199;SDS011;50516;52.272;5.136;2023-05-08T13:57:05;24.40;;;17.60;;
64199;SDS011;50516;52.272;5.136;2023-05-08T13:59:32;21.90;;;16.50;;
64199;SDS011;50516;52.272;5.136;2023-05-08T14:01:57;27.83;;;17.90;;
64199;SDS011;50516;52.272;5.136;2023-05-08T14:04:22;22.45;;;17.33;;
64199;SDS011;50516;52.272;5.136;2023-05-08T14:06:48;24.90;;;19.20;;
64199;SDS011;50516;52.272;5.136;2023-05-08T14:09:13;23.65;;;19.48;;
64199;SDS011;50516;52.272;5.136;2023-05-08T14:11:39;26.38;;;19.42;;
64199;SDS011;50516;52.272;5.136;2023-05-08T14:14:04;23.80;;;17.25;;
64199;SDS011;50516;52.272;5.136;2023-05-08T14:16:29;31.73;;;23.65;;
64199;SDS011;50516;52.272;5.136;2023-05-08T14:18:55;29.70;;;22.65;;
64199;SDS011;50516;52.272;5.136;2023-05-08T14:21:20;27.73;;;20.92;;
64199;SDS011;50516;52.272;5.136;2023-05-08T14:23:45;23.85;;;18.30;;
64199;SDS011;50516;52.272;5.136;2023-05-08T14:26:10;25.42;;;20.50;;
64199;SDS011;50516;52.272;5.136;2023-05-08T14:28:36;26.83;;;18.35;;
64199;SDS011;50516;52.272;5.136;2023-05-08T14:31:01;29.77;;;21.77;;
64199;SDS011;50516;52.272;5.136;2023-05-08T14:33:26;25.05;;;19.10;;
64199;SDS011;50516;52.272;5.136;2023-05-08T14:35:52;24.95;;;18.98;;
64199;SDS011;50516;52.272;5.136;2023-05-08T14:38:17;30.55;;;23.02;;
64199;SDS011;50516;52.272;5.136;2023-05-08T14:40:42;26.15;;;19.83;;
64199;SDS011;50516;52.272;5.136;2023-05-08T14:43:08;29.95;;;21.42;;
64199;SDS011;50516;52.272;5.136;2023-05-08T14:45:33;27.02;;;19.30;;
64199;SDS011;50516;52.272;5.136;2023-05-08T14:47:58;32.85;;;22.48;;
64199;SDS011;50516;52.272;5.136;2023-05-08T14:50:24;22.17;;;17.42;;
64199;SDS011;50516;52.272;5.136;2023-05-08T14:52:51;25.85;;;20.30;;
64199;SDS011;50516;52.272;5.136;2023-05-08T14:55:16;27.63;;;21.85;;
64199;SDS011;50516;52.272;5.136;2023-05-08T14:57:45;27.65;;;21.35;;
64199;SDS011;50516;52.272;5.136;2023-05-08T15:00:11;25.20;;;18.77;;
64199;SDS011;50516;52.272;5.136;2023-05-08T15:02:37;28.95;;;22.08;;
64199;SDS011;50516;52.272;5.136;2023-05-08T15:05:03;31.90;;;24.67;;
64199;SDS011;50516;52.272;5.136;2023-05-08T15:07:29;32.55;;;23.48;;
64199;SDS011;50516;52.272;5.136;2023-05-08T15:09:54;28.27;;;22.20;;
64199;SDS011;50516;52.272;5.136;2023-05-08T15:12:20;28.25;;;20.30;;
64199;SDS011;50516;52.272;5.136;2023-05-08T15:14:45;28.58;;;20.63;;
64199;SDS011;50516;52.272;5.136;2023-05-08T15:17:10;36.38;;;24.92;;
64199;SDS011;50516;52.272;5.136;2023-05-08T15:19:36;31.40;;;22.15;;
64199;SDS011;50516;52.272;5.136;2023-05-08T15:22:01;32.50;;;24.98;;
64199;SDS011;50516;52.272;5.136;2023-05-08T15:24:27;31.63;;;25.00;;